Time;durP1;ratioP1;P1;durP2;ratioP2;P2;SDS_P1;SDS_P2;PMS_P1;PMS_P2;Temp;Humidity;BMP_temperature;BMP_pressure;BME280_temperature;BME280_humidity;BME280_pressure;Samples;Min_cycle;Max_cycle;Signal;HPM_P1;HPM_P2
2024/03/15 00:00:12;;;;;;;;;;;;;;;;;;5073287;28;19916;-65
2024/03/15 00:02:37;;;;;;;;;;;;;;;;;;5078099;28;20426;-65
2024/03/15 00:05:02;;;;;;;;;;;;;;;;;;5078888;28;19912;-65
2024/03/15 00:07:27;;;;;;;;;;;;;;;;;;5078330;28;20391;-66
2024/03/15 00:09:52;;;;;;;;;;;;;;;;;;5079122;28;20285;-66
2024/03/15 00:12:17;;;;;;;;;;;;;;;;;;5074317;28;19913;-66
2024/03/15 00:14:42;;;;;;;;;;;;;;;;;;5078973;28;19920;-66
2024/03/15 00:17:07;;;;;;;;;;;;;;;;;;5074205;28;20427;-66
2024/03/15 00:19:33;;;;;;;;;;;;;;;;;;5078694;28;20289;-66
2024/03/15 00:21:58;;;;;;;;;;;;;;;;;;5077180;28;20694;-65
2024/03/15 00:24:23;;;;;;;;;;;;;;;;;;5078085;28;19923;-66
2024/03/15 00:26:48;;;;;;;;;;;;;;;;;;5077182;28;20296;-66
2024/03/15 00:29:13;;;;;;;;;;;;;;;;;;5078645;28;19966;-66
2024/03/15 00:31:39;;;;;;;;;;;;;;;;;;5076565;28;19920;-66
2024/03/15 00:34:04;;;;;;;;;;;;;;;;;;5080230;28;19919;-65
2024/03/15 00:36:31;;;;;;;;;;;;;;;;;;5074658;28;19958;-66
2024/03/15 00:38:56;;;;;;;;;;;;;;;;;;5079568;28;20353;-66
2024/03/15 00:41:21;;;;;;;;;;;;;;;;;;5078248;28;19924;-66
2024/03/15 00:43:47;;;;;;;;;;;;;;;;;;5085563;28;19924;-66
2024/03/15 00:46:12;;;;;;;;;;;;;;;;;;5079338;28;20483;-66
2024/03/15 00:48:37;;;;;;;;;;;;;;;;;;5075531;28;19917;-65
2024/03/15 00:51:03;;;;;;;;;;;;;;;;;;5077580;28;20250;-65
2024/03/15 00:53:30;;;;;;;;;;;;;;;;;;5080636;28;19967;-66
2024/03/15 00:55:55;;;;;;;;;;;;;;;;;;5074595;28;20622;-66
2024/03/15 00:58:20;;;;;;;;;;;;;;;;;;5081420;28;20361;-66
2024/03/15 01:00:47;;;;;;;;;;;;;;;;;;5077692;28;19912;-67
2024/03/15 01:03:12;;;;;;;;;;;;;;;;;;5082564;28;19965;-65
2024/03/15 01:05:38;;;;;;;;;;;;;;;;;;5082614;28;19916;-66
2024/03/15 01:08:03;;;;;;;;;;;;;;;;;;5081214;28;19912;-66
2024/03/15 01:10:31;;;;;;;;;;;;;;;;;;5079862;28;19957;-66
2024/03/15 01:12:58;;;;;;;;;;;;;;;;;;5081219;28;20254;-66
2024/03/15 01:15:23;;;;;;;;;;;;;;;;;;5079455;28;20011;-65
2024/03/15 01:17:48;;;;;;;;;;;;;;;;;;5086510;28;20024;-65
2024/03/15 01:20:14;;;;;;;;;;;;;;;;;;5073571;28;19919;-65
2024/03/15 01:22:41;;;;;;;;;;;;;;;;;;5072798;28;19912;-66
2024/03/15 01:25:06;;;;;;;;;;;;;;;;;;5074891;28;19920;-65
2024/03/15 01:27:31;;;;;;;;;;;;;;;;;;5075118;28;19908;-65
2024/03/15 01:29:56;;;;;;;;;;;;;;;;;;5076534;28;19916;-65
2024/03/15 01:32:22;;;;;;;;;;;;;;;;;;5077158;28;19920;-65
2024/03/15 01:34:49;;;;;;;;;;;;;;;;;;5084033;28;19909;-65
2024/03/15 01:37:14;;;;;;;;;;;;;;;;;;5072809;28;20273;-65
2024/03/15 01:39:39;;;;;;;;;;;;;;;;;;5077894;28;20420;-66
2024/03/15 01:42:04;;;;;;;;;;;;;;;;;;5081404;28;19950;-65
2024/03/15 01:44:30;;;;;;;;;;;;;;;;;;5075036;28;19919;-66
2024/03/15 01:46:55;;;;;;;;;;;;;;;;;;5079312;28;19918;-66
2024/03/15 01:49:20;;;;;;;;;;;;;;;;;;5082458;28;19959;-66
2024/03/15 01:51:45;;;;;;;;;;;;;;;;;;5074369;28;19916;-66
2024/03/15 01:54:10;;;;;;;;;;;;;;;;;;5082637;28;19912;-66
2024/03/15 01:56:36;;;;;;;;;;;;;;;;;;5077566;28;19959;-66
2024/03/15 01:59:01;;;;;;;;;;;;;;;;;;5076481;28;19923;-66
2024/03/15 02:01:26;;;;;;;;;;;;;;;;;;5077240;28;20639;-65
2024/03/15 02:03:52;;;;;;;;;;;;;;;;;;5084775;28;19938;-66
2024/03/15 02:06:17;;;;;;;;;;;;;;;;;;5085413;28;19920;-66
2024/03/15 02:08:42;;;;;;;;;;;;;;;;;;5081495;28;19912;-66
2024/03/15 02:11:07;;;;;;;;;;;;;;;;;;5076898;28;20385;-66
2024/03/15 02:13:32;;;;;;;;;;;;;;;;;;5073803;28;19912;-66
2024/03/15 02:15:57;;;;;;;;;;;;;;;;;;5089483;28;19920;-66
2024/03/15 02:18:22;;;;;;;;;;;;;;;;;;5089822;28;19911;-65
2024/03/15 02:20:48;;;;;;;;;;;;;;;;;;5096325;28;19915;-65
2024/03/15 02:23:15;;;;;;;;;;;;;;;;;;5094266;28;21061;-66
2024/03/15 02:25:41;;;;;;;;;;;;;;;;;;5089023;28;19962;-66
2024/03/15 02:28:06;;;;;;;;;;;;;;;;;;5089129;28;19920;-66
2024/03/15 02:30:32;;;;;;;;;;;;;;;;;;5091457;28;19920;-66
2024/03/15 02:32:58;;;;;;;;;;;;;;;;;;5095913;28;19982;-65
2024/03/15 02:35:23;;;;;;;;;;;;;;;;;;5077669;28;19948;-66
2024/03/15 02:37:48;;;;;;;;;;;;;;;;;;5072637;28;19952;-66
2024/03/15 02:40:14;;;;;;;;;;;;;;;;;;5087439;28;20020;-65
2024/03/15 02:42:39;;;;;;;;;;;;;;;;;;5088350;28;19928;-66
2024/03/15 02:45:04;;;;;;;;;;;;;;;;;;5074189;28;20355;-66
2024/03/15 02:47:29;;;;;;;;;;;;;;;;;;5071724;28;19912;-66
2024/03/15 02:49:56;;;;;;;;;;;;;;;;;;5071349;28;19924;-66
2024/03/15 02:52:21;;;;;;;;;;;;;;;;;;5081756;28;19908;-66
2024/03/15 02:54:46;;;;;;;;;;;;;;;;;;5076392;28;20372;-66
2024/03/15 02:57:12;;;;;;;;;;;;;;;;;;5070628;28;19923;-65
2024/03/15 02:59:37;;;;;;;;;;;;;;;;;;5070790;28;19982;-65
2024/03/15 03:02:02;;;;;;;;;;;;;;;;;;5075848;28;19960;-66
2024/03/15 03:04:27;;;;;;;;;;;;;;;;;;5095777;28;19912;-66
2024/03/15 03:06:53;;;;;;;;;;;;;;;;;;5090240;28;19919;-65
2024/03/15 03:09:18;;;;;;;;;;;;;;;;;;5074193;28;19920;-66
2024/03/15 03:11:43;;;;;;;;;;;;;;;;;;5072107;28;20284;-66
2024/03/15 03:14:09;;;;;;;;;;;;;;;;;;5072174;28;19939;-66
2024/03/15 03:16:34;;;;;;;;;;;;;;;;;;5071993;28;20316;-65
2024/03/15 03:19:00;;;;;;;;;;;;;;;;;;5070668;28;19920;-66
2024/03/15 03:21:25;;;;;;;;;;;;;;;;;;5071556;28;19995;-65
2024/03/15 03:23:52;;;;;;;;;;;;;;;;;;5072094;28;19917;-66
2024/03/15 03:26:17;;;;;;;;;;;;;;;;;;5072301;28;19958;-66
2024/03/15 03:28:42;;;;;;;;;;;;;;;;;;5072324;28;19916;-66
2024/03/15 03:31:07;;;;;;;;;;;;;;;;;;5071067;28;19916;-66
2024/03/15 03:33:32;;;;;;;;;;;;;;;;;;5085777;28;19912;-66
2024/03/15 03:35:57;;;;;;;;;;;;;;;;;;5079256;28;19999;-66
2024/03/15 03:38:22;;;;;;;;;;;;;;;;;;5069750;28;19912;-64
2024/03/15 03:40:48;;;;;;;;;;;;;;;;;;5073167;28;19924;-65
2024/03/15 03:43:13;;;;;;;;;;;;;;;;;;5088219;28;20384;-66
2024/03/15 03:45:42;;;;;;;;;;;;;;;;;;5072661;28;19917;-65
2024/03/15 03:48:07;;;;;;;;;;;;;;;;;;5071405;28;20002;-65
2024/03/15 03:50:33;;;;;;;;;;;;;;;;;;5087933;28;19998;-64
2024/03/15 03:52:58;;;;;;;;;;;;;;;;;;5086013;28;20369;-65
2024/03/15 03:55:24;;;;;;;;;;;;;;;;;;5070264;28;19923;-64
2024/03/15 03:57:51;;;;;;;;;;;;;;;;;;5082654;28;20019;-64
2024/03/15 04:00:16;;;;;;;;;;;;;;;;;;5074615;28;20442;-64
2024/03/15 04:02:43;;;;;;;;;;;;;;;;;;5077250;28;19921;-64
2024/03/15 04:05:09;;;;;;;;;;;;;;;;;;5090311;28;19921;-65
2024/03/15 04:07:34;;;;;;;;;;;;;;;;;;5074305;28;20469;-65
2024/03/15 04:09:59;;;;;;;;;;;;;;;;;;5073803;28;19913;-65
2024/03/15 04:12:27;;;;;;;;;;;;;;;;;;5071779;28;19912;-64
2024/03/15 04:14:52;;;;;;;;;;;;;;;;;;5075345;28;19916;-64
2024/03/15 04:17:19;;;;;;;;;;;;;;;;;;5081259;28;19916;-66
2024/03/15 04:19:44;;;;;;;;;;;;;;;;;;5074032;28;19912;-65
2024/03/15 04:22:11;;;;;;;;;;;;;;;;;;5074074;28;19913;-64
2024/03/15 04:24:36;;;;;;;;;;;;;;;;;;5080674;28;19917;-65
2024/03/15 04:27:01;;;;;;;;;;;;;;;;;;5071998;28;20034;-64
2024/03/15 04:29:26;;;;;;;;;;;;;;;;;;5072791;28;19962;-64
2024/03/15 04:31:51;;;;;;;;;;;;;;;;;;5070726;28;19984;-64
2024/03/15 04:34:16;;;;;;;;;;;;;;;;;;5073935;28;19966;-64
2024/03/15 04:36:43;;;;;;;;;;;;;;;;;;5082204;28;19916;-64
2024/03/15 04:39:08;;;;;;;;;;;;;;;;;;5071264;28;19962;-66
2024/03/15 04:41:33;;;;;;;;;;;;;;;;;;5070378;28;19928;-64
2024/03/15 04:43:58;;;;;;;;;;;;;;;;;;5078968;28;19913;-64
2024/03/15 04:46:23;;;;;;;;;;;;;;;;;;5079140;28;19999;-64
2024/03/15 04:48:49;;;;;;;;;;;;;;;;;;5073392;28;19913;-65
2024/03/15 04:51:14;;;;;;;;;;;;;;;;;;5081903;28;19957;-66
2024/03/15 04:53:40;;;;;;;;;;;;;;;;;;5074573;28;19952;-66
2024/03/15 04:56:05;;;;;;;;;;;;;;;;;;5079438;28;19924;-65
2024/03/15 04:58:33;;;;;;;;;;;;;;;;;;5080036;28;19912;-66
2024/03/15 05:01:00;;;;;;;;;;;;;;;;;;5074154;28;19930;-66
2024/03/15 05:03:25;;;;;;;;;;;;;;;;;;5080422;28;19919;-66
2024/03/15 05:05:50;;;;;;;;;;;;;;;;;;5080234;28;19912;-65
2024/03/15 05:08:15;;;;;;;;;;;;;;;;;;5080249;28;19916;-66
2024/03/15 05:10:40;;;;;;;;;;;;;;;;;;5073157;28;19913;-66
2024/03/15 05:13:06;;;;;;;;;;;;;;;;;;5077963;28;19924;-67
2024/03/15 05:15:33;;;;;;;;;;;;;;;;;;5074395;28;19936;-66
2024/03/15 05:17:58;;;;;;;;;;;;;;;;;;5079315;28;19916;-66
2024/03/15 05:20:24;;;;;;;;;;;;;;;;;;5072906;28;19919;-65
2024/03/15 05:22:49;;;;;;;;;;;;;;;;;;5076840;28;19920;-65
2024/03/15 05:25:14;;;;;;;;;;;;;;;;;;5079694;28;19991;-66
2024/03/15 05:27:39;;;;;;;;;;;;;;;;;;5079134;28;19912;-66
2024/03/15 05:30:05;;;;;;;;;;;;;;;;;;5074853;28;19916;-66
2024/03/15 05:32:30;;;;;;;;;;;;;;;;;;5077906;28;20365;-66
2024/03/15 05:34:55;;;;;;;;;;;;;;;;;;5073766;28;19923;-66
2024/03/15 05:37:20;;;;;;;;;;;;;;;;;;5088860;28;19951;-65
2024/03/15 05:39:45;;;;;;;;;;;;;;;;;;5076594;28;19920;-66
2024/03/15 05:42:10;;;;;;;;;;;;;;;;;;5074367;28;20472;-66
2024/03/15 05:44:36;;;;;;;;;;;;;;;;;;5077361;28;19947;-65
2024/03/15 05:47:01;;;;;;;;;;;;;;;;;;5075023;28;19912;-66
2024/03/15 05:49:26;;;;;;;;;;;;;;;;;;5083433;28;20052;-66
2024/03/15 05:51:51;;;;;;;;;;;;;;;;;;5077749;28;19912;-66
2024/03/15 05:54:16;;;;;;;;;;;;;;;;;;5077691;28;19923;-66
2024/03/15 05:56:41;;;;;;;;;;;;;;;;;;5080492;28;19939;-67
2024/03/15 05:59:07;;;;;;;;;;;;;;;;;;5073268;28;20010;-66
2024/03/15 06:01:32;;;;;;;;;;;;;;;;;;5087917;28;19912;-67
2024/03/15 06:03:57;;;;;;;;;;;;;;;;;;5085437;28;20047;-65
2024/03/15 06:06:24;;;;;;;;;;;;;;;;;;5085303;28;19912;-66
2024/03/15 06:08:49;;;;;;;;;;;;;;;;;;5072662;28;20053;-67
2024/03/15 06:11:14;;;;;;;;;;;;;;;;;;5081517;28;20003;-65
2024/03/15 06:13:39;;;;;;;;;;;;;;;;;;5076439;28;19912;-65
2024/03/15 06:16:04;;;;;;;;;;;;;;;;;;5079149;28;19920;-66
2024/03/15 06:18:29;;;;;;;;;;;;;;;;;;5076186;28;19923;-66
2024/03/15 06:20:54;;;;;;;;;;;;;;;;;;5080983;28;20017;-67
2024/03/15 06:23:20;;;;;;;;;;;;;;;;;;5082054;28;19993;-65
2024/03/15 06:25:45;;;;;;;;;;;;;;;;;;5073249;28;19978;-65
2024/03/15 06:28:11;;;;;;;;;;;;;;;;;;5084489;28;19965;-65
2024/03/15 06:30:44;;;;;;;;;;;;;;;;;;5073105;28;19923;-66
2024/03/15 06:33:10;;;;;;;;;;;;;;;;;;5080447;28;19959;-65
2024/03/15 06:35:35;;;;;;;;;;;;;;;;;;5082471;28;20389;-65
2024/03/15 06:38:09;;;;;;;;;;;;;;;;;;5073230;28;19920;-64
2024/03/15 06:40:56;;;;;;;;;;;;;;;;;;5076670;28;20328;-64
2024/03/15 06:46:24;;;;;;;;;;;;;;;;;;5053054;28;19923;-64
2024/03/15 06:48:59;;;;;;;;;;;;;;;;;;5079033;28;19943;-65
2024/03/15 06:54:14;;;;;;;;;;;;;;;;;;5074633;28;19958;-65
2024/03/15 06:56:41;;;;;;;;;;;;;;;;;;5071930;28;20328;-65
2024/03/15 06:59:09;;;;;;;;;;;;;;;;;;5075925;28;19912;-65
2024/03/15 07:01:34;;;;;;;;;;;;;;;;;;5078843;28;19934;-64
2024/03/15 07:03:59;;;;;;;;;;;;;;;;;;5082808;28;19913;-64
2024/03/15 07:06:27;;;;;;;;;;;;;;;;;;5077690;28;19935;-64
2024/03/15 07:08:52;;;;;;;;;;;;;;;;;;5075370;28;19999;-63
2024/03/15 07:11:18;;;;;;;;;;;;;;;;;;5074521;28;20037;-62
2024/03/15 07:13:43;;;;;;;;;;;;;;;;;;5079563;28;19912;-63
2024/03/15 07:16:08;;;;;;;;;;;;;;;;;;5072793;28;19932;-63
2024/03/15 07:18:33;;;;;;;;;;;;;;;;;;5075074;28;19913;-63
2024/03/15 07:20:58;;;;;;;;;;;;;;;;;;5076177;28;19921;-63
2024/03/15 07:23:25;;;;;;;;;;;;;;;;;;5074532;28;19944;-63
2024/03/15 07:25:51;;;;;;;;;;;;;;;;;;5081910;28;20007;-63
2024/03/15 07:28:19;;;;;;;;;;;;;;;;;;5077549;28;20034;-63
2024/03/15 07:30:46;;;;;;;;;;;;;;;;;;5077570;28;19923;-62
2024/03/15 07:33:11;;;;;;;;;;;;;;;;;;5071670;28;19923;-62
2024/03/15 07:35:36;;;;;;;;;;;;;;;;;;5071971;28;19912;-63
2024/03/15 07:38:04;;;;;;;;;;;;;;;;;;5077104;28;20407;-62
2024/03/15 07:40:29;;;;;;;;;;;;;;;;;;5072993;28;19923;-62
2024/03/15 07:42:56;;;;;;;;;;;;;;;;;;5077076;28;20335;-62
2024/03/15 07:45:21;;;;;;;;;;;;;;;;;;5072594;28;20354;-61
2024/03/15 07:47:47;;;;;;;;;;;;;;;;;;5071675;28;19951;-62
2024/03/15 07:50:12;;;;;;;;;;;;;;;;;;5069348;28;19934;-62
2024/03/15 07:52:38;;;;;;;;;;;;;;;;;;5080090;28;19960;-62
2024/03/15 07:55:03;;;;;;;;;;;;;;;;;;5079266;28;19923;-62
2024/03/15 07:57:29;;;;;;;;;;;;;;;;;;5075570;28;19916;-62
2024/03/15 07:59:55;;;;;;;;;;;;;;;;;;5070728;28;19939;-63
2024/03/15 08:02:24;;;;;;;;;;;;;;;;;;5076747;28;19912;-61
2024/03/15 08:04:50;;;;;;;;;;;;;;;;;;5078423;28;19920;-62
2024/03/15 08:07:15;;;;;;;;;;;;;;;;;;5078459;28;19922;-62
2024/03/15 08:09:40;;;;;;;;;;;;;;;;;;5079087;28;19913;-63
2024/03/15 08:12:06;;;;;;;;;;;;;;;;;;5081409;28;20355;-62
2024/03/15 08:14:32;;;;;;;;;;;;;;;;;;5072397;28;19937;-62
2024/03/15 08:16:57;;;;;;;;;;;;;;;;;;5073765;28;20277;-62
2024/03/15 08:19:23;;;;;;;;;;;;;;;;;;5073556;28;19923;-62
2024/03/15 08:21:51;;;;;;;;;;;;;;;;;;5074409;28;20019;-62
2024/03/15 08:24:16;;;;;;;;;;;;;;;;;;5074878;28;19917;-62
2024/03/15 08:26:41;;;;;;;;;;;;;;;;;;5079169;28;19920;-62
2024/03/15 08:29:08;;;;;;;;;;;;;;;;;;5076453;28;19913;-62
2024/03/15 08:31:33;;;;;;;;;;;;;;;;;;5074951;28;19913;-62
2024/03/15 08:34:04;;;;;;;;;;;;;;;;;;5079875;28;20300;-63
2024/03/15 08:36:32;;;;;;;;;;;;;;;;;;5077854;28;19916;-62
2024/03/15 08:38:57;;;;;;;;;;;;;;;;;;5080455;28;19916;-63
2024/03/15 08:41:22;;;;;;;;;;;;;;;;;;5085260;28;19927;-64
2024/03/15 08:43:49;;;;;;;;;;;;;;;;;;5081663;28;19931;-62
2024/03/15 08:46:14;;;;;;;;;;;;;;;;;;5087620;28;19966;-62
2024/03/15 08:48:40;;;;;;;;;;;;;;;;;;5077260;28;20331;-62
2024/03/15 08:51:06;;;;;;;;;;;;;;;;;;5079361;28;19943;-64
2024/03/15 08:53:32;;;;;;;;;;;;;;;;;;5082174;28;19950;-62
2024/03/15 08:55:58;;;;;;;;;;;;;;;;;;5077936;28;19916;-62
2024/03/15 08:58:26;;;;;;;;;;;;;;;;;;5077988;28;19912;-62
2024/03/15 09:00:51;;;;;;;;;;;;;;;;;;5081452;28;19919;-62
2024/03/15 09:03:17;;;;;;;;;;;;;;;;;;5081698;28;19919;-64
2024/03/15 09:05:43;;;;;;;;;;;;;;;;;;5081773;28;19912;-62
2024/03/15 09:08:11;;;;;;;;;;;;;;;;;;5075492;28;19966;-64
2024/03/15 09:10:36;;;;;;;;;;;;;;;;;;5078821;28;19917;-62
2024/03/15 09:13:01;;;;;;;;;;;;;;;;;;5078158;28;19919;-62
2024/03/15 09:15:26;;;;;;;;;;;;;;;;;;5078105;28;20361;-62
2024/03/15 09:17:51;;;;;;;;;;;;;;;;;;5073541;28;19921;-63
2024/03/15 09:22:42;;;;;;;;;;;;;;;;;;5079177;28;19935;-63
2024/03/15 09:25:07;;;;;;;;;;;;;;;;;;5080247;28;19912;-63
2024/03/15 09:27:36;;;;;;;;;;;;;;;;;;5078019;28;20502;-65
2024/03/15 09:30:16;;;;;;;;;;;;;;;;;;5076108;28;20388;-65
2024/03/15 09:32:41;;;;;;;;;;;;;;;;;;5077251;28;19957;-64
2024/03/15 09:35:07;;;;;;;;;;;;;;;;;;5080081;28;19913;-65
2024/03/15 09:37:36;;;;;;;;;;;;;;;;;;5073542;28;19923;-65
2024/03/15 09:40:03;;;;;;;;;;;;;;;;;;5078232;28;19912;-66
2024/03/15 09:42:29;;;;;;;;;;;;;;;;;;5079484;28;19966;-64
2024/03/15 09:44:54;;;;;;;;;;;;;;;;;;5075854;28;20284;-65
2024/03/15 09:47:19;;;;;;;;;;;;;;;;;;5079754;28;19912;-65
2024/03/15 09:49:44;;;;;;;;;;;;;;;;;;5074168;28;19927;-64
2024/03/15 09:52:11;;;;;;;;;;;;;;;;;;5081464;28;20014;-65
2024/03/15 09:54:36;;;;;;;;;;;;;;;;;;5078747;28;19923;-64
2024/03/15 09:57:01;;;;;;;;;;;;;;;;;;5069255;28;19917;-64
2024/03/15 09:59:28;;;;;;;;;;;;;;;;;;5074541;28;19912;-65
2024/03/15 10:01:53;;;;;;;;;;;;;;;;;;5075890;28;19920;-65
2024/03/15 10:04:18;;;;;;;;;;;;;;;;;;5083386;28;19920;-64
2024/03/15 10:06:44;;;;;;;;;;;;;;;;;;5077902;28;20335;-64
2024/03/15 10:09:12;;;;;;;;;;;;;;;;;;5083893;28;19920;-65
2024/03/15 10:11:37;;;;;;;;;;;;;;;;;;5073983;28;19913;-65
2024/03/15 10:14:03;;;;;;;;;;;;;;;;;;5090988;28;20280;-65
2024/03/15 10:16:32;;;;;;;;;;;;;;;;;;5077859;28;19979;-66
2024/03/15 10:18:57;;;;;;;;;;;;;;;;;;5076615;28;20373;-66
2024/03/15 10:21:22;;;;;;;;;;;;;;;;;;5078776;28;19955;-65
2024/03/15 10:23:47;;;;;;;;;;;;;;;;;;5072012;28;19920;-65
2024/03/15 10:26:13;;;;;;;;;;;;;;;;;;5072252;28;19956;-66
2024/03/15 10:28:39;;;;;;;;;;;;;;;;;;5082585;28;19920;-64
2024/03/15 10:31:04;;;;;;;;;;;;;;;;;;5077894;28;19923;-65
2024/03/15 10:33:30;;;;;;;;;;;;;;;;;;5077048;28;20402;-65
2024/03/15 10:35:55;;;;;;;;;;;;;;;;;;5075594;28;20015;-64
2024/03/15 10:38:20;;;;;;;;;;;;;;;;;;5077526;28;20551;-65
2024/03/15 10:40:46;;;;;;;;;;;;;;;;;;5077939;28;19920;-65
2024/03/15 10:43:11;;;;;;;;;;;;;;;;;;5081854;28;19916;-65
2024/03/15 10:45:37;;;;;;;;;;;;;;;;;;5072218;28;19913;-64
2024/03/15 10:48:02;;;;;;;;;;;;;;;;;;5079482;28;19923;-65
2024/03/15 10:50:30;;;;;;;;;;;;;;;;;;5078024;28;19912;-65
2024/03/15 10:52:55;;;;;;;;;;;;;;;;;;5075280;28;19999;-66
2024/03/15 10:55:20;;;;;;;;;;;;;;;;;;5074446;28;20395;-65
2024/03/15 10:57:45;;;;;;;;;;;;;;;;;;5076423;28;20135;-65
2024/03/15 11:00:14;;;;;;;;;;;;;;;;;;5079565;28;19912;-67
2024/03/15 11:02:39;;;;;;;;;;;;;;;;;;5075385;28;19913;-65
2024/03/15 11:05:04;;;;;;;;;;;;;;;;;;5077544;28;19912;-64
2024/03/15 11:07:30;;;;;;;;;;;;;;;;;;5075559;28;19951;-65
2024/03/15 11:09:56;;;;;;;;;;;;;;;;;;5076505;28;19927;-65
2024/03/15 11:12:21;;;;;;;;;;;;;;;;;;5071019;28;19913;-65
2024/03/15 11:14:46;;;;;;;;;;;;;;;;;;5076657;28;20268;-64
2024/03/15 11:17:11;;;;;;;;;;;;;;;;;;5074232;28;19916;-65
2024/03/15 11:19:36;;;;;;;;;;;;;;;;;;5075917;28;19920;-65
2024/03/15 11:22:04;;;;;;;;;;;;;;;;;;5077198;28;19994;-65
2024/03/15 11:24:29;;;;;;;;;;;;;;;;;;5075948;28;20659;-64
2024/03/15 11:26:54;;;;;;;;;;;;;;;;;;5080266;28;19999;-65
2024/03/15 11:29:20;;;;;;;;;;;;;;;;;;5073311;28;19982;-64
2024/03/15 11:31:45;;;;;;;;;;;;;;;;;;5072218;28;19962;-64
2024/03/15 11:34:10;;;;;;;;;;;;;;;;;;5070812;28;20681;-64
2024/03/15 11:36:35;;;;;;;;;;;;;;;;;;5072531;28;19931;-64
2024/03/15 11:39:01;;;;;;;;;;;;;;;;;;5071676;28;19959;-64
2024/03/15 11:41:26;;;;;;;;;;;;;;;;;;5077000;28;19932;-64
2024/03/15 11:43:51;;;;;;;;;;;;;;;;;;5080797;28;20011;-64
2024/03/15 11:46:16;;;;;;;;;;;;;;;;;;5082489;28;19959;-64
2024/03/15 11:48:42;;;;;;;;;;;;;;;;;;5074164;28;19930;-64
2024/03/15 11:51:08;;;;;;;;;;;;;;;;;;5069652;28;23512;-64
2024/03/15 11:53:34;;;;;;;;;;;;;;;;;;5080046;28;19919;-65
2024/03/15 11:55:59;;;;;;;;;;;;;;;;;;5073487;28;19913;-64
2024/03/15 11:58:24;;;;;;;;;;;;;;;;;;5070984;28;19916;-65
2024/03/15 12:00:49;;;;;;;;;;;;;;;;;;5075967;28;19938;-65
2024/03/15 12:03:15;;;;;;;;;;;;;;;;;;5080129;28;19960;-64
2024/03/15 12:05:43;;;;;;;;;;;;;;;;;;5091481;28;20003;-65
2024/03/15 12:08:08;;;;;;;;;;;;;;;;;;5080023;28;19927;-64
2024/03/15 12:10:33;;;;;;;;;;;;;;;;;;5089419;28;19913;-64
2024/03/15 12:12:59;;;;;;;;;;;;;;;;;;5080816;28;19920;-65
2024/03/15 12:15:24;;;;;;;;;;;;;;;;;;5087519;28;20373;-65
2024/03/15 12:17:49;;;;;;;;;;;;;;;;;;5079676;28;19920;-64
2024/03/15 12:20:14;;;;;;;;;;;;;;;;;;5092222;28;19935;-63
2024/03/15 12:22:39;;;;;;;;;;;;;;;;;;5094952;28;19923;-63
2024/03/15 12:25:04;;;;;;;;;;;;;;;;;;5091054;28;20376;-63
2024/03/15 12:27:30;;;;;;;;;;;;;;;;;;5097468;28;20004;-63
2024/03/15 12:29:55;;;;;;;;;;;;;;;;;;5089117;28;19961;-63
2024/03/15 12:32:23;;;;;;;;;;;;;;;;;;5090530;28;19916;-64
2024/03/15 12:34:48;;;;;;;;;;;;;;;;;;5085960;28;22165;-63
2024/03/15 12:37:13;;;;;;;;;;;;;;;;;;5088475;28;20054;-63
2024/03/15 12:39:38;;;;;;;;;;;;;;;;;;5086920;28;19959;-63
2024/03/15 12:42:04;;;;;;;;;;;;;;;;;;5090123;28;19947;-63
2024/03/15 12:44:29;;;;;;;;;;;;;;;;;;5088396;28;19912;-63
2024/03/15 12:46:54;;;;;;;;;;;;;;;;;;5089090;28;19965;-63
2024/03/15 12:49:20;;;;;;;;;;;;;;;;;;5073718;28;21481;-63
2024/03/15 12:51:45;;;;;;;;;;;;;;;;;;5090171;28;19922;-64
2024/03/15 12:54:11;;;;;;;;;;;;;;;;;;5087368;28;20007;-64
2024/03/15 12:56:36;;;;;;;;;;;;;;;;;;5089280;28;20332;-64
2024/03/15 12:59:01;;;;;;;;;;;;;;;;;;5089565;28;19912;-64
2024/03/15 13:01:26;;;;;;;;;;;;;;;;;;5086035;28;19943;-65
2024/03/15 13:03:51;;;;;;;;;;;;;;;;;;5092042;28;19912;-62
2024/03/15 13:06:16;;;;;;;;;;;;;;;;;;5079195;28;19919;-63
2024/03/15 13:08:42;;;;;;;;;;;;;;;;;;5075934;28;19923;-63
2024/03/15 13:11:08;;;;;;;;;;;;;;;;;;5079143;28;20384;-63
2024/03/15 13:13:33;;;;;;;;;;;;;;;;;;5076934;28;19940;-63
2024/03/15 13:15:58;;;;;;;;;;;;;;;;;;5074533;28;19951;-62
2024/03/15 13:18:23;;;;;;;;;;;;;;;;;;5077848;28;19912;-63
2024/03/15 13:20:48;;;;;;;;;;;;;;;;;;5080672;28;19973;-65
2024/03/15 13:23:13;;;;;;;;;;;;;;;;;;5077193;28;19948;-63
2024/03/15 13:25:38;;;;;;;;;;;;;;;;;;5085877;28;19912;-62
2024/03/15 13:28:04;;;;;;;;;;;;;;;;;;5081476;28;19913;-62
2024/03/15 13:30:29;;;;;;;;;;;;;;;;;;5078747;28;19920;-63
2024/03/15 13:32:54;;;;;;;;;;;;;;;;;;5075713;28;19920;-62
2024/03/15 13:35:19;;;;;;;;;;;;;;;;;;5078213;28;19995;-62
2024/03/15 13:37:44;;;;;;;;;;;;;;;;;;5081345;28;19969;-62
2024/03/15 13:40:15;;;;;;;;;;;;;;;;;;5081692;28;19963;-62
2024/03/15 13:42:41;;;;;;;;;;;;;;;;;;5085115;28;19928;-64
2024/03/15 13:45:07;;;;;;;;;;;;;;;;;;5075591;28;19916;-63
2024/03/15 13:50:16;;;;;;;;;;;;;;;;;;5074519;28;19985;-63
2024/03/15 13:52:41;;;;;;;;;;;;;;;;;;5080553;28;19912;-62
2024/03/15 13:55:08;;;;;;;;;;;;;;;;;;5079850;28;19954;-63
2024/03/15 13:57:35;;;;;;;;;;;;;;;;;;5074030;28;20369;-64
2024/03/15 14:00:00;;;;;;;;;;;;;;;;;;5080552;28;20318;-63
2024/03/15 14:02:25;;;;;;;;;;;;;;;;;;5078990;28;20408;-63
2024/03/15 14:04:50;;;;;;;;;;;;;;;;;;5075868;28;20311;-63
2024/03/15 14:07:16;;;;;;;;;;;;;;;;;;5090739;28;20262;-65
2024/03/15 14:09:41;;;;;;;;;;;;;;;;;;5090900;28;20375;-66
2024/03/15 14:12:08;;;;;;;;;;;;;;;;;;5093839;28;19916;-65
2024/03/15 14:14:33;;;;;;;;;;;;;;;;;;5097959;28;19951;-65
2024/03/15 14:16:59;;;;;;;;;;;;;;;;;;5097967;28;20000;-65
2024/03/15 14:19:24;;;;;;;;;;;;;;;;;;5087851;28;19967;-65
2024/03/15 14:21:49;;;;;;;;;;;;;;;;;;5082978;28;19922;-65
2024/03/15 14:24:14;;;;;;;;;;;;;;;;;;5072434;28;20358;-65
2024/03/15 14:26:39;;;;;;;;;;;;;;;;;;5080512;28;20011;-65
2024/03/15 14:29:08;;;;;;;;;;;;;;;;;;5074274;28;19920;-65
2024/03/15 14:31:33;;;;;;;;;;;;;;;;;;5081865;28;20627;-66
2024/03/15 14:33:58;;;;;;;;;;;;;;;;;;5074606;28;20587;-65
2024/03/15 14:36:23;;;;;;;;;;;;;;;;;;5070431;28;19921;-65
2024/03/15 14:38:50;;;;;;;;;;;;;;;;;;5075681;28;19920;-65
2024/03/15 14:41:16;;;;;;;;;;;;;;;;;;5078201;28;20428;-64
2024/03/15 14:43:41;;;;;;;;;;;;;;;;;;5081198;28;20002;-64
2024/03/15 14:46:06;;;;;;;;;;;;;;;;;;5085461;28;19948;-65
2024/03/15 14:48:31;;;;;;;;;;;;;;;;;;5076402;28;19920;-65
2024/03/15 14:50:57;;;;;;;;;;;;;;;;;;5070645;28;19923;-65
2024/03/15 14:53:22;;;;;;;;;;;;;;;;;;5074716;28;20654;-65
2024/03/15 14:55:47;;;;;;;;;;;;;;;;;;5078637;28;19959;-65
2024/03/15 14:58:12;;;;;;;;;;;;;;;;;;5080814;28;20402;-66
2024/03/15 15:00:37;;;;;;;;;;;;;;;;;;5076620;28;20331;-67
2024/03/15 15:03:05;;;;;;;;;;;;;;;;;;5074567;28;19912;-67
2024/03/15 15:05:33;;;;;;;;;;;;;;;;;;5078132;28;20361;-66
2024/03/15 15:08:00;;;;;;;;;;;;;;;;;;5072538;28;19913;-66
2024/03/15 15:10:25;;;;;;;;;;;;;;;;;;5083791;28;19952;-66
2024/03/15 15:12:50;;;;;;;;;;;;;;;;;;5070102;28;19952;-65
2024/03/15 15:15:16;;;;;;;;;;;;;;;;;;5072160;28;20342;-65
2024/03/15 15:17:44;;;;;;;;;;;;;;;;;;5073630;28;19923;-64
2024/03/15 15:20:09;;;;;;;;;;;;;;;;;;5073280;28;19923;-65
2024/03/15 15:22:35;;;;;;;;;;;;;;;;;;5072613;28;19920;-65
2024/03/15 15:25:00;;;;;;;;;;;;;;;;;;5073374;28;19912;-64
2024/03/15 15:27:25;;;;;;;;;;;;;;;;;;5079101;28;20263;-65
2024/03/15 15:29:50;;;;;;;;;;;;;;;;;;5071525;28;19913;-64
2024/03/15 15:32:15;;;;;;;;;;;;;;;;;;5076195;28;19927;-65
2024/03/15 15:34:41;;;;;;;;;;;;;;;;;;5070974;28;19962;-65
2024/03/15 15:37:06;;;;;;;;;;;;;;;;;;5075916;28;19957;-63
2024/03/15 15:39:32;;;;;;;;;;;;;;;;;;5081107;28;19955;-64
2024/03/15 15:41:57;;;;;;;;;;;;;;;;;;5080587;28;20377;-62
2024/03/15 15:44:22;;;;;;;;;;;;;;;;;;5074545;28;19957;-63
2024/03/15 15:46:48;;;;;;;;;;;;;;;;;;5074509;28;19912;-63
2024/03/15 15:49:13;;;;;;;;;;;;;;;;;;5073684;28;19943;-63
2024/03/15 15:51:39;;;;;;;;;;;;;;;;;;5084216;28;19920;-62
2024/03/15 15:54:07;;;;;;;;;;;;;;;;;;5071741;28;19912;-63
2024/03/15 15:56:32;;;;;;;;;;;;;;;;;;5075842;28;20301;-63
2024/03/15 15:58:57;;;;;;;;;;;;;;;;;;5073191;28;20388;-63
2024/03/15 16:01:22;;;;;;;;;;;;;;;;;;5069671;28;19912;-63
2024/03/15 16:03:48;;;;;;;;;;;;;;;;;;5080970;28;19912;-63
2024/03/15 16:06:13;;;;;;;;;;;;;;;;;;5076265;28;19916;-63
2024/03/15 16:08:38;;;;;;;;;;;;;;;;;;5072941;28;20305;-63
2024/03/15 16:11:03;;;;;;;;;;;;;;;;;;5072740;28;19912;-65
2024/03/15 16:13:28;;;;;;;;;;;;;;;;;;5075943;28;19928;-63
2024/03/15 16:15:56;;;;;;;;;;;;;;;;;;5071751;28;19912;-63
2024/03/15 16:18:22;;;;;;;;;;;;;;;;;;5075741;28;19959;-63
2024/03/15 16:20:47;;;;;;;;;;;;;;;;;;5074921;28;19948;-63
2024/03/15 16:23:12;;;;;;;;;;;;;;;;;;5078988;28;20068;-63
2024/03/15 16:25:37;;;;;;;;;;;;;;;;;;5079080;28;19926;-63
2024/03/15 16:28:04;;;;;;;;;;;;;;;;;;5077962;28;19917;-61
2024/03/15 16:30:29;;;;;;;;;;;;;;;;;;5074590;28;19920;-60
2024/03/15 16:32:56;;;;;;;;;;;;;;;;;;5078419;28;19956;-61
2024/03/15 16:35:21;;;;;;;;;;;;;;;;;;5076022;28;19913;-60
2024/03/15 16:37:47;;;;;;;;;;;;;;;;;;5076610;28;19920;-59
2024/03/15 16:40:16;;;;;;;;;;;;;;;;;;5073920;28;19917;-60
2024/03/15 16:42:42;;;;;;;;;;;;;;;;;;5074525;28;19920;-62
2024/03/15 16:45:07;;;;;;;;;;;;;;;;;;5076260;28;19958;-60